Terminal Aerodrome Forecast
Issued by NWS

Home | Current Version | Previous Version | Text Only | Print | Product List | Glossary On
Versions: 1 2 3 4 5 6 7 8 9 10 11 12 13 14 15 16 17
000
FTUS44 KLZK 102300
TAFHOT
TAF
KHOT 102320Z 1100/1124 09007KT P6SM VCSH SCT010 OVC040
     FM110900 VRB03KT 3SM BR BKN010 OVC025
      TEMPO 1109/1113 1SM BR BKN005 OVC010
     FM111500 17005KT P6SM SCT025 BKN040 PROB30 1118/1124 TSRA
      BKN025CB=

USA.gov is the U.S. government's official web portal to all federal, state and local government web resources and services.